IGO7335 VOMM-VOKN
Flight info
| Callsign | IGO7335 |
|---|---|
| Flight time | 1h 22m |
| Altitude | 14000 |
| Route | XIVIL2B XIVIL W117 BIA J17 MSR V87 PAMLU |
| Aircraft | AT76/M-SDFGIRY/S |
Departure
| Time | 2026-04-30 01:20 |
|---|---|
| Airport | Chennai International Airport (VOMM) |
Arrival
| Time | 2026-04-30 02:42 |
|---|---|
| Airport | Kannur International Airport (VOKN) |
| Time | Latitude | Longitude | Altitude | Speed | Heading |
|---|---|---|---|---|---|
| 2026-04-30 00:55 | 12.98581 | 80.16532 | 49 ft | 0 kts | 339° |
| 2026-04-30 01:10 | 12.98568 | 80.16537 | 52 ft | 4 kts | 340° |
| 2026-04-30 01:11 | 12.98543 | 80.16544 | 50 ft | 4 kts | 351° |
| 2026-04-30 01:11 | 12.98511 | 80.16541 | 49 ft | 4 kts | 53° |
| 2026-04-30 01:11 | 12.98507 | 80.16536 | 52 ft | 0 kts | 70° |
| 2026-04-30 01:13 | 12.98508 | 80.16537 | 52 ft | 2 kts | 70° |
| 2026-04-30 01:13 | 12.98519 | 80.16571 | 50 ft | 7 kts | 71° |
| 2026-04-30 01:13 | 12.98540 | 80.16630 | 50 ft | 11 kts | 69° |
| 2026-04-30 01:14 | 12.98567 | 80.16705 | 51 ft | 12 kts | 69° |
| 2026-04-30 01:14 | 12.98618 | 80.16771 | 52 ft | 13 kts | 4° |
| 2026-04-30 01:14 | 12.98705 | 80.16736 | 52 ft | 14 kts | 337° |
| 2026-04-30 01:14 | 12.98776 | 80.16786 | 52 ft | 16 kts | 72° |
| 2026-04-30 01:15 | 12.98817 | 80.16898 | 51 ft | 18 kts | 69° |
| 2026-04-30 01:15 | 12.98862 | 80.17016 | 51 ft | 18 kts | 69° |
| 2026-04-30 01:15 | 12.98906 | 80.17135 | 52 ft | 18 kts | 69° |
| 2026-04-30 01:15 | 12.98957 | 80.17254 | 52 ft | 18 kts | 58° |
| 2026-04-30 01:16 | 12.99009 | 80.17371 | 49 ft | 18 kts | 69° |
| 2026-04-30 01:16 | 12.99053 | 80.17488 | 50 ft | 18 kts | 69° |
| 2026-04-30 01:16 | 12.99097 | 80.17606 | 50 ft | 18 kts | 69° |
| 2026-04-30 01:16 | 12.99148 | 80.17697 | 52 ft | 8 kts | 20° |
| 2026-04-30 01:17 | 12.99207 | 80.17720 | 53 ft | 11 kts | 64° |
| 2026-04-30 01:17 | 12.99237 | 80.17804 | 50 ft | 14 kts | 69° |
| 2026-04-30 01:17 | 12.99275 | 80.17905 | 52 ft | 16 kts | 69° |
| 2026-04-30 01:17 | 12.99318 | 80.18018 | 50 ft | 16 kts | 68° |
| 2026-04-30 01:18 | 12.99344 | 80.18086 | 53 ft | 11 kts | 68° |
| 2026-04-30 01:18 | 12.99404 | 80.18129 | 55 ft | 13 kts | 337° |
| 2026-04-30 01:18 | 12.99444 | 80.18048 | 54 ft | 12 kts | 272° |
| 2026-04-30 01:18 | 12.99428 | 80.17992 | 53 ft | 1 kts | 249° |
| 2026-04-30 01:19 | 12.99420 | 80.17973 | 54 ft | 18 kts | 249° |
| 2026-04-30 01:19 | 12.99303 | 80.17663 | 52 ft | 76 kts | 248° |
| 2026-04-30 01:19 | 12.99047 | 80.16964 | 88 ft | 126 kts | 245° |
| 2026-04-30 01:19 | 12.98715 | 80.16079 | 487 ft | 143 kts | 242° |
| 2026-04-30 01:20 | 12.98284 | 80.15078 | 782 ft | 168 kts | 248° |
| 2026-04-30 01:20 | 12.97901 | 80.13858 | 1080 ft | 190 kts | 249° |
| 2026-04-30 01:20 | 12.97795 | 80.12472 | 1379 ft | 211 kts | 280° |
| 2026-04-30 01:20 | 12.98411 | 80.11065 | 1643 ft | 220 kts | 290° |
| 2026-04-30 01:21 | 12.99066 | 80.09636 | 1936 ft | 223 kts | 288° |
| 2026-04-30 01:21 | 12.99655 | 80.08158 | 2232 ft | 225 kts | 284° |
| 2026-04-30 01:21 | 13.00148 | 80.06634 | 2516 ft | 225 kts | 281° |
| 2026-04-30 01:21 | 13.00577 | 80.05089 | 2795 ft | 225 kts | 281° |
| 2026-04-30 01:22 | 13.00989 | 80.03543 | 3091 ft | 225 kts | 281° |
| 2026-04-30 01:22 | 13.01398 | 80.01987 | 3377 ft | 226 kts | 281° |
| 2026-04-30 01:22 | 13.01827 | 80.00427 | 3668 ft | 228 kts | 282° |
| 2026-04-30 01:22 | 13.02270 | 79.98858 | 3957 ft | 229 kts | 283° |
| 2026-04-30 01:23 | 13.02715 | 79.97284 | 4245 ft | 230 kts | 284° |
| 2026-04-30 01:23 | 13.03163 | 79.95709 | 4537 ft | 231 kts | 284° |
| 2026-04-30 01:23 | 13.03612 | 79.94129 | 4826 ft | 231 kts | 284° |
| 2026-04-30 01:23 | 13.04062 | 79.92544 | 5116 ft | 232 kts | 284° |
| 2026-04-30 01:24 | 13.04513 | 79.90957 | 5392 ft | 232 kts | 285° |
| 2026-04-30 01:24 | 13.04963 | 79.89368 | 5688 ft | 232 kts | 285° |
| 2026-04-30 01:24 | 13.05413 | 79.87774 | 5981 ft | 233 kts | 286° |
| 2026-04-30 01:24 | 13.05865 | 79.86180 | 6274 ft | 233 kts | 287° |
| 2026-04-30 01:25 | 13.06314 | 79.84611 | 6544 ft | 228 kts | 287° |
| 2026-04-30 01:25 | 13.06760 | 79.83038 | 6775 ft | 232 kts | 287° |
| 2026-04-30 01:25 | 13.07208 | 79.81444 | 7007 ft | 234 kts | 287° |
| 2026-04-30 01:25 | 13.07662 | 79.79830 | 7242 ft | 237 kts | 287° |
| 2026-04-30 01:26 | 13.08105 | 79.78196 | 7474 ft | 239 kts | 286° |
| 2026-04-30 01:26 | 13.08525 | 79.76541 | 7718 ft | 241 kts | 285° |
| 2026-04-30 01:26 | 13.08941 | 79.74874 | 7959 ft | 242 kts | 285° |
| 2026-04-30 01:26 | 13.09359 | 79.73192 | 8196 ft | 244 kts | 285° |
| 2026-04-30 01:27 | 13.09777 | 79.71503 | 8451 ft | 245 kts | 285° |
| 2026-04-30 01:27 | 13.10198 | 79.69808 | 8691 ft | 246 kts | 285° |
| 2026-04-30 01:27 | 13.10620 | 79.68105 | 8941 ft | 247 kts | 285° |
| 2026-04-30 01:27 | 13.11044 | 79.66395 | 9179 ft | 248 kts | 285° |
| 2026-04-30 01:28 | 13.11471 | 79.64679 | 9421 ft | 249 kts | 285° |
| 2026-04-30 01:28 | 13.11899 | 79.62953 | 9646 ft | 251 kts | 285° |
| 2026-04-30 01:28 | 13.12330 | 79.61214 | 9860 ft | 252 kts | 285° |
| 2026-04-30 01:28 | 13.12759 | 79.59465 | 10064 ft | 253 kts | 285° |
| 2026-04-30 01:29 | 13.13180 | 79.57755 | 10259 ft | 248 kts | 285° |
| 2026-04-30 01:29 | 13.13601 | 79.56052 | 10450 ft | 245 kts | 285° |
| 2026-04-30 01:29 | 13.14018 | 79.54364 | 10636 ft | 243 kts | 285° |
| 2026-04-30 01:29 | 13.14440 | 79.52666 | 10822 ft | 241 kts | 285° |
| 2026-04-30 01:30 | 13.14846 | 79.51030 | 11001 ft | 240 kts | 285° |
| 2026-04-30 01:30 | 13.15254 | 79.49378 | 11187 ft | 238 kts | 285° |
| 2026-04-30 01:30 | 13.15660 | 79.47734 | 11383 ft | 237 kts | 285° |
| 2026-04-30 01:30 | 13.16065 | 79.46097 | 11569 ft | 236 kts | 285° |
| 2026-04-30 01:31 | 13.16468 | 79.44469 | 11761 ft | 235 kts | 285° |
| 2026-04-30 01:31 | 13.16869 | 79.42848 | 11955 ft | 234 kts | 285° |
| 2026-04-30 01:31 | 13.17267 | 79.41233 | 12155 ft | 233 kts | 285° |
| 2026-04-30 01:31 | 13.17662 | 79.39629 | 12352 ft | 232 kts | 285° |
| 2026-04-30 01:32 | 13.18054 | 79.38031 | 12547 ft | 230 kts | 286° |
| 2026-04-30 01:32 | 13.18444 | 79.36441 | 12745 ft | 229 kts | 286° |
| 2026-04-30 01:32 | 13.18836 | 79.34862 | 12948 ft | 228 kts | 286° |
| 2026-04-30 01:32 | 13.19227 | 79.33288 | 13149 ft | 227 kts | 286° |
| 2026-04-30 01:33 | 13.19610 | 79.31719 | 13351 ft | 226 kts | 286° |
| 2026-04-30 01:33 | 13.19994 | 79.30159 | 13553 ft | 225 kts | 286° |
| 2026-04-30 01:33 | 13.20379 | 79.28607 | 13749 ft | 224 kts | 286° |
| 2026-04-30 01:33 | 13.20763 | 79.27059 | 13891 ft | 225 kts | 286° |
| 2026-04-30 01:34 | 13.21155 | 79.25484 | 13956 ft | 230 kts | 286° |
| 2026-04-30 01:34 | 13.21554 | 79.23875 | 13989 ft | 235 kts | 286° |
| 2026-04-30 01:34 | 13.21959 | 79.22231 | 14004 ft | 240 kts | 286° |
| 2026-04-30 01:34 | 13.22375 | 79.20557 | 14012 ft | 244 kts | 286° |
| 2026-04-30 01:35 | 13.22793 | 79.18858 | 14017 ft | 247 kts | 286° |
| 2026-04-30 01:35 | 13.23218 | 79.17139 | 14018 ft | 250 kts | 286° |
| 2026-04-30 01:35 | 13.23645 | 79.15406 | 14024 ft | 252 kts | 286° |
| 2026-04-30 01:35 | 13.24078 | 79.13655 | 14022 ft | 254 kts | 286° |
| 2026-04-30 01:36 | 13.24513 | 79.11896 | 14034 ft | 255 kts | 286° |
| 2026-04-30 01:36 | 13.24947 | 79.10129 | 14035 ft | 256 kts | 286° |
| 2026-04-30 01:36 | 13.25384 | 79.08358 | 14045 ft | 256 kts | 286° |
| 2026-04-30 01:36 | 13.25823 | 79.06582 | 14038 ft | 257 kts | 286° |
| 2026-04-30 01:37 | 13.26260 | 79.04799 | 14033 ft | 258 kts | 286° |
| 2026-04-30 01:37 | 13.26700 | 79.03012 | 14036 ft | 259 kts | 286° |
| 2026-04-30 01:37 | 13.27144 | 79.01220 | 14032 ft | 259 kts | 286° |
| 2026-04-30 01:37 | 13.27587 | 78.99425 | 14030 ft | 259 kts | 286° |
| 2026-04-30 01:38 | 13.28029 | 78.97632 | 14052 ft | 260 kts | 286° |
| 2026-04-30 01:38 | 13.28473 | 78.95833 | 14051 ft | 260 kts | 286° |
| 2026-04-30 01:38 | 13.28916 | 78.94034 | 14054 ft | 260 kts | 286° |
| 2026-04-30 01:38 | 13.29361 | 78.92234 | 14055 ft | 260 kts | 286° |
| 2026-04-30 01:39 | 13.29546 | 78.90401 | 14046 ft | 259 kts | 268° |
| 2026-04-30 01:39 | 13.29353 | 78.88559 | 14055 ft | 260 kts | 264° |
| 2026-04-30 01:39 | 13.29125 | 78.86716 | 14056 ft | 261 kts | 265° |
| 2026-04-30 01:39 | 13.28935 | 78.84867 | 14055 ft | 260 kts | 267° |
| 2026-04-30 01:40 | 13.28801 | 78.83014 | 14071 ft | 261 kts | 268° |
| 2026-04-30 01:40 | 13.28688 | 78.81156 | 14071 ft | 262 kts | 268° |
| 2026-04-30 01:40 | 13.28564 | 78.79285 | 14072 ft | 263 kts | 268° |
| 2026-04-30 01:40 | 13.28438 | 78.77416 | 14069 ft | 263 kts | 268° |
| 2026-04-30 01:41 | 13.28311 | 78.75540 | 14065 ft | 264 kts | 268° |
| 2026-04-30 01:41 | 13.28183 | 78.73661 | 14062 ft | 264 kts | 268° |
| 2026-04-30 01:41 | 13.28054 | 78.71782 | 14063 ft | 264 kts | 268° |
| 2026-04-30 01:41 | 13.27927 | 78.69903 | 14068 ft | 264 kts | 268° |
| 2026-04-30 01:42 | 13.27799 | 78.68027 | 14086 ft | 264 kts | 268° |
| 2026-04-30 01:42 | 13.27671 | 78.66148 | 14080 ft | 264 kts | 268° |
| 2026-04-30 01:42 | 13.27543 | 78.64268 | 14086 ft | 264 kts | 268° |
| 2026-04-30 01:42 | 13.27415 | 78.62411 | 14081 ft | 264 kts | 268° |
| 2026-04-30 01:43 | 13.27287 | 78.60529 | 14080 ft | 264 kts | 268° |
| 2026-04-30 01:43 | 13.27156 | 78.58622 | 14080 ft | 264 kts | 268° |
| 2026-04-30 01:43 | 13.27028 | 78.56740 | 14080 ft | 264 kts | 268° |
| 2026-04-30 01:43 | 13.26897 | 78.54862 | 14080 ft | 264 kts | 268° |
| 2026-04-30 01:44 | 13.26769 | 78.53005 | 14086 ft | 264 kts | 268° |
| 2026-04-30 01:44 | 13.26639 | 78.51098 | 14084 ft | 264 kts | 268° |
| 2026-04-30 01:44 | 13.26508 | 78.49216 | 14083 ft | 264 kts | 268° |
| 2026-04-30 01:44 | 13.26382 | 78.47359 | 14084 ft | 264 kts | 268° |
| 2026-04-30 01:45 | 13.26251 | 78.45476 | 14080 ft | 264 kts | 268° |
| 2026-04-30 01:45 | 13.26121 | 78.43594 | 14082 ft | 264 kts | 268° |
| 2026-04-30 01:45 | 13.25991 | 78.41711 | 14084 ft | 264 kts | 268° |
| 2026-04-30 01:45 | 13.25859 | 78.39829 | 14079 ft | 264 kts | 268° |
| 2026-04-30 01:46 | 13.25729 | 78.37947 | 14096 ft | 264 kts | 268° |
| 2026-04-30 01:46 | 13.25600 | 78.36071 | 14098 ft | 264 kts | 268° |
| 2026-04-30 01:46 | 13.25468 | 78.34192 | 14100 ft | 264 kts | 268° |
| 2026-04-30 01:46 | 13.25339 | 78.32312 | 14105 ft | 264 kts | 268° |
| 2026-04-30 01:47 | 13.25207 | 78.30434 | 14100 ft | 264 kts | 268° |
| 2026-04-30 01:47 | 13.25075 | 78.28555 | 14099 ft | 264 kts | 268° |
| 2026-04-30 01:47 | 13.24946 | 78.26675 | 14098 ft | 264 kts | 268° |
| 2026-04-30 01:47 | 13.24813 | 78.24794 | 14107 ft | 264 kts | 268° |
| 2026-04-30 01:48 | 13.24683 | 78.22913 | 14111 ft | 264 kts | 268° |
| 2026-04-30 01:48 | 13.24550 | 78.21032 | 14116 ft | 264 kts | 268° |
| 2026-04-30 01:48 | 13.24418 | 78.19149 | 14114 ft | 265 kts | 268° |
| 2026-04-30 01:48 | 13.24284 | 78.17241 | 14111 ft | 265 kts | 268° |
| 2026-04-30 01:49 | 13.24153 | 78.15379 | 14113 ft | 265 kts | 268° |
| 2026-04-30 01:49 | 13.24020 | 78.13489 | 14111 ft | 265 kts | 268° |
| 2026-04-30 01:49 | 13.23888 | 78.11598 | 14110 ft | 266 kts | 268° |
| 2026-04-30 01:49 | 13.23753 | 78.09711 | 14125 ft | 265 kts | 268° |
| 2026-04-30 01:50 | 13.23622 | 78.07817 | 14121 ft | 265 kts | 268° |
| 2026-04-30 01:50 | 13.23487 | 78.05907 | 14124 ft | 265 kts | 268° |
| 2026-04-30 01:50 | 13.23352 | 78.04018 | 14125 ft | 265 kts | 268° |
| 2026-04-30 01:50 | 13.23222 | 78.02152 | 14129 ft | 265 kts | 268° |
| 2026-04-30 01:51 | 13.23087 | 78.00263 | 14125 ft | 265 kts | 268° |
| 2026-04-30 01:51 | 13.22953 | 77.98349 | 14125 ft | 265 kts | 268° |
| 2026-04-30 01:51 | 13.22820 | 77.96486 | 14124 ft | 265 kts | 268° |
| 2026-04-30 01:51 | 13.22686 | 77.94600 | 14133 ft | 265 kts | 268° |
| 2026-04-30 01:52 | 13.22550 | 77.92709 | 14136 ft | 266 kts | 268° |
| 2026-04-30 01:52 | 13.22415 | 77.90815 | 14138 ft | 266 kts | 268° |
| 2026-04-30 01:52 | 13.22282 | 77.88917 | 14138 ft | 267 kts | 268° |
| 2026-04-30 01:52 | 13.22147 | 77.87022 | 14139 ft | 267 kts | 268° |
| 2026-04-30 01:53 | 13.22010 | 77.85122 | 14133 ft | 267 kts | 268° |
| 2026-04-30 01:53 | 13.21874 | 77.83222 | 14130 ft | 267 kts | 268° |
| 2026-04-30 01:53 | 13.21739 | 77.81324 | 14137 ft | 267 kts | 268° |
| 2026-04-30 01:53 | 13.21605 | 77.79427 | 14165 ft | 267 kts | 268° |
| 2026-04-30 01:54 | 13.21466 | 77.77527 | 14164 ft | 267 kts | 268° |
| 2026-04-30 01:54 | 13.21332 | 77.75628 | 14167 ft | 267 kts | 268° |
| 2026-04-30 01:54 | 13.21199 | 77.73733 | 14167 ft | 267 kts | 268° |
| 2026-04-30 01:54 | 13.21064 | 77.71833 | 14163 ft | 267 kts | 268° |
| 2026-04-30 01:55 | 13.20839 | 77.69952 | 14162 ft | 267 kts | 254° |
| 2026-04-30 01:55 | 13.20299 | 77.68826 | 14166 ft | 267 kts | 238° |
| 2026-04-30 01:55 | 13.19130 | 77.67343 | 14170 ft | 267 kts | 227° |
| 2026-04-30 01:55 | 13.17813 | 77.65997 | 14171 ft | 267 kts | 225° |
| 2026-04-30 01:56 | 13.16018 | 77.64224 | 14167 ft | 269 kts | 225° |
| 2026-04-30 01:56 | 13.15138 | 77.63326 | 14167 ft | 270 kts | 226° |
| 2026-04-30 01:56 | 13.13831 | 77.61938 | 14163 ft | 271 kts | 227° |
| 2026-04-30 01:56 | 13.12530 | 77.60540 | 14169 ft | 272 kts | 227° |
| 2026-04-30 01:57 | 13.11219 | 77.59136 | 14162 ft | 272 kts | 227° |
| 2026-04-30 01:57 | 13.09908 | 77.57733 | 14161 ft | 273 kts | 227° |
| 2026-04-30 01:57 | 13.08593 | 77.56329 | 14157 ft | 273 kts | 227° |
| 2026-04-30 01:57 | 13.07280 | 77.54924 | 14162 ft | 273 kts | 227° |
| 2026-04-30 01:58 | 13.05964 | 77.53516 | 14162 ft | 273 kts | 227° |
| 2026-04-30 01:58 | 13.04646 | 77.52107 | 14157 ft | 273 kts | 227° |
| 2026-04-30 01:58 | 13.03327 | 77.50700 | 14161 ft | 274 kts | 227° |
| 2026-04-30 01:58 | 13.02009 | 77.49293 | 14158 ft | 274 kts | 227° |
| 2026-04-30 01:59 | 12.99367 | 77.46470 | 14154 ft | 274 kts | 227° |
| 2026-04-30 01:59 | 12.98045 | 77.45060 | 14158 ft | 274 kts | 227° |
| 2026-04-30 01:59 | 12.96722 | 77.43645 | 14156 ft | 275 kts | 227° |
| 2026-04-30 02:00 | 12.95400 | 77.42232 | 14154 ft | 275 kts | 227° |
| 2026-04-30 02:00 | 12.94075 | 77.40818 | 14157 ft | 275 kts | 227° |
| 2026-04-30 02:00 | 12.92751 | 77.39405 | 14154 ft | 275 kts | 227° |
| 2026-04-30 02:00 | 12.91426 | 77.37992 | 14151 ft | 275 kts | 227° |
| 2026-04-30 02:01 | 12.90102 | 77.36580 | 14147 ft | 275 kts | 227° |
| 2026-04-30 02:01 | 12.88777 | 77.35168 | 14140 ft | 275 kts | 227° |
| 2026-04-30 02:01 | 12.87457 | 77.33757 | 14141 ft | 275 kts | 227° |
| 2026-04-30 02:01 | 12.86134 | 77.32348 | 14139 ft | 274 kts | 227° |
| 2026-04-30 02:02 | 12.84811 | 77.30934 | 14138 ft | 274 kts | 227° |
| 2026-04-30 02:02 | 12.83494 | 77.29530 | 14143 ft | 274 kts | 227° |
| 2026-04-30 02:02 | 12.82174 | 77.28126 | 14139 ft | 274 kts | 227° |
| 2026-04-30 02:02 | 12.80854 | 77.26720 | 14139 ft | 273 kts | 227° |
| 2026-04-30 02:03 | 12.79538 | 77.25314 | 14144 ft | 273 kts | 227° |
| 2026-04-30 02:03 | 12.78221 | 77.23912 | 14139 ft | 273 kts | 227° |
| 2026-04-30 02:03 | 12.76904 | 77.22510 | 14130 ft | 273 kts | 227° |
| 2026-04-30 02:03 | 12.75591 | 77.21107 | 14126 ft | 273 kts | 226° |
| 2026-04-30 02:04 | 12.74274 | 77.19708 | 14128 ft | 273 kts | 226° |
| 2026-04-30 02:04 | 12.72958 | 77.18310 | 14125 ft | 273 kts | 227° |
| 2026-04-30 02:04 | 12.71647 | 77.16914 | 14125 ft | 273 kts | 226° |
| 2026-04-30 02:04 | 12.70331 | 77.15514 | 14127 ft | 273 kts | 226° |
| 2026-04-30 02:05 | 12.69017 | 77.14114 | 14126 ft | 273 kts | 227° |
| 2026-04-30 02:05 | 12.67701 | 77.12714 | 14123 ft | 273 kts | 226° |
| 2026-04-30 02:05 | 12.66384 | 77.11316 | 14127 ft | 273 kts | 226° |
| 2026-04-30 02:05 | 12.65069 | 77.09914 | 14127 ft | 273 kts | 226° |
| 2026-04-30 02:06 | 12.63752 | 77.08514 | 14126 ft | 273 kts | 226° |
| 2026-04-30 02:06 | 12.62434 | 77.07115 | 14119 ft | 273 kts | 226° |
| 2026-04-30 02:06 | 12.61117 | 77.05714 | 14116 ft | 273 kts | 226° |
| 2026-04-30 02:06 | 12.59796 | 77.04312 | 14069 ft | 275 kts | 226° |
| 2026-04-30 02:07 | 12.58463 | 77.02890 | 13971 ft | 278 kts | 226° |
| 2026-04-30 02:07 | 12.57118 | 77.01460 | 13883 ft | 281 kts | 226° |
| 2026-04-30 02:07 | 12.55758 | 77.00018 | 13795 ft | 282 kts | 226° |
| 2026-04-30 02:07 | 12.54410 | 76.98586 | 13690 ft | 284 kts | 226° |
| 2026-04-30 02:08 | 12.53021 | 76.97111 | 13588 ft | 285 kts | 226° |
| 2026-04-30 02:08 | 12.51643 | 76.95649 | 13488 ft | 286 kts | 226° |
| 2026-04-30 02:08 | 12.50262 | 76.94183 | 13388 ft | 286 kts | 226° |
| 2026-04-30 02:08 | 12.48896 | 76.92734 | 13283 ft | 287 kts | 226° |
| 2026-04-30 02:09 | 12.47511 | 76.91261 | 13184 ft | 287 kts | 226° |
| 2026-04-30 02:09 | 12.46123 | 76.89788 | 13087 ft | 288 kts | 226° |
| 2026-04-30 02:09 | 12.44735 | 76.88317 | 12991 ft | 288 kts | 226° |
| 2026-04-30 02:09 | 12.43342 | 76.86837 | 12892 ft | 289 kts | 226° |
| 2026-04-30 02:10 | 12.41948 | 76.85358 | 12791 ft | 289 kts | 226° |
| 2026-04-30 02:10 | 12.40551 | 76.83877 | 12577 ft | 292 kts | 226° |
| 2026-04-30 02:10 | 12.39134 | 76.82376 | 12330 ft | 294 kts | 226° |
| 2026-04-30 02:10 | 12.37748 | 76.80895 | 12080 ft | 285 kts | 226° |
| 2026-04-30 02:11 | 12.36366 | 76.79414 | 11781 ft | 289 kts | 226° |
| 2026-04-30 02:11 | 12.34975 | 76.77921 | 11497 ft | 290 kts | 226° |
| 2026-04-30 02:11 | 12.33559 | 76.76412 | 11184 ft | 290 kts | 225° |
| 2026-04-30 02:11 | 12.32191 | 76.74959 | 10889 ft | 286 kts | 225° |
| 2026-04-30 02:12 | 12.30817 | 76.73509 | 10587 ft | 282 kts | 225° |
| 2026-04-30 02:12 | 12.29459 | 76.72078 | 10290 ft | 279 kts | 225° |
| 2026-04-30 02:12 | 12.28116 | 76.70659 | 9996 ft | 277 kts | 225° |
| 2026-04-30 02:12 | 12.26785 | 76.69252 | 9680 ft | 275 kts | 225° |
| 2026-04-30 02:13 | 12.25460 | 76.67851 | 9355 ft | 273 kts | 225° |
| 2026-04-30 02:13 | 12.24145 | 76.66457 | 9038 ft | 272 kts | 225° |
| 2026-04-30 02:13 | 12.22909 | 76.65023 | 8711 ft | 266 kts | 238° |
| 2026-04-30 02:13 | 12.22237 | 76.63276 | 8393 ft | 265 kts | 254° |
| 2026-04-30 02:14 | 12.21780 | 76.61446 | 8081 ft | 265 kts | 257° |
| 2026-04-30 02:14 | 12.21350 | 76.59612 | 7770 ft | 265 kts | 256° |
| 2026-04-30 02:14 | 12.20889 | 76.57791 | 7461 ft | 264 kts | 255° |
| 2026-04-30 02:14 | 12.20385 | 76.55991 | 7165 ft | 262 kts | 253° |
| 2026-04-30 02:15 | 12.19874 | 76.54217 | 6943 ft | 257 kts | 254° |
| 2026-04-30 02:15 | 12.19381 | 76.52480 | 6769 ft | 252 kts | 254° |
| 2026-04-30 02:15 | 12.18896 | 76.50778 | 6600 ft | 247 kts | 254° |
| 2026-04-30 02:15 | 12.18422 | 76.49099 | 6425 ft | 244 kts | 254° |
| 2026-04-30 02:16 | 12.17960 | 76.47434 | 6231 ft | 242 kts | 255° |
| 2026-04-30 02:16 | 12.17585 | 76.45755 | 6034 ft | 243 kts | 259° |
| 2026-04-30 02:16 | 12.17276 | 76.44061 | 5892 ft | 242 kts | 260° |
| 2026-04-30 02:16 | 12.16979 | 76.42381 | 5791 ft | 239 kts | 260° |
| 2026-04-30 02:17 | 12.16685 | 76.40717 | 5697 ft | 238 kts | 260° |
| 2026-04-30 02:17 | 12.16376 | 76.39056 | 5598 ft | 238 kts | 259° |
| 2026-04-30 02:17 | 12.16059 | 76.37401 | 5508 ft | 238 kts | 259° |
| 2026-04-30 02:17 | 12.15739 | 76.35742 | 5414 ft | 238 kts | 259° |
| 2026-04-30 02:18 | 12.15417 | 76.34091 | 5375 ft | 237 kts | 259° |
| 2026-04-30 02:18 | 12.15092 | 76.32428 | 5359 ft | 247 kts | 259° |
| 2026-04-30 02:18 | 12.14758 | 76.30692 | 5331 ft | 244 kts | 259° |
| 2026-04-30 02:18 | 12.14431 | 76.29021 | 5299 ft | 241 kts | 259° |
| 2026-04-30 02:19 | 12.14107 | 76.27351 | 5275 ft | 239 kts | 259° |
| 2026-04-30 02:19 | 12.13786 | 76.25692 | 5257 ft | 237 kts | 259° |
| 2026-04-30 02:19 | 12.13465 | 76.24042 | 5229 ft | 236 kts | 259° |
| 2026-04-30 02:19 | 12.13143 | 76.22398 | 5210 ft | 235 kts | 259° |
| 2026-04-30 02:20 | 12.12825 | 76.20762 | 5175 ft | 235 kts | 259° |
| 2026-04-30 02:20 | 12.12506 | 76.19127 | 5155 ft | 234 kts | 259° |
| 2026-04-30 02:20 | 12.12187 | 76.17496 | 5141 ft | 234 kts | 259° |
| 2026-04-30 02:20 | 12.11872 | 76.15868 | 5121 ft | 234 kts | 259° |
| 2026-04-30 02:21 | 12.11552 | 76.14236 | 5082 ft | 234 kts | 259° |
| 2026-04-30 02:21 | 12.11236 | 76.12613 | 5050 ft | 232 kts | 259° |
| 2026-04-30 02:21 | 12.10920 | 76.10996 | 5034 ft | 232 kts | 259° |
| 2026-04-30 02:21 | 12.10604 | 76.09384 | 5017 ft | 232 kts | 259° |
| 2026-04-30 02:22 | 12.10288 | 76.07769 | 4991 ft | 231 kts | 259° |
| 2026-04-30 02:22 | 12.09973 | 76.06156 | 4961 ft | 231 kts | 259° |
| 2026-04-30 02:22 | 12.09657 | 76.04545 | 4936 ft | 231 kts | 259° |
| 2026-04-30 02:22 | 12.09345 | 76.02934 | 4921 ft | 231 kts | 259° |
| 2026-04-30 02:23 | 12.09027 | 76.01322 | 4898 ft | 232 kts | 259° |
| 2026-04-30 02:23 | 12.08712 | 75.99704 | 4846 ft | 233 kts | 259° |
| 2026-04-30 02:23 | 12.08395 | 75.98080 | 4794 ft | 233 kts | 258° |
| 2026-04-30 02:23 | 12.08076 | 75.96456 | 4760 ft | 233 kts | 259° |
| 2026-04-30 02:24 | 12.07759 | 75.94831 | 4703 ft | 234 kts | 259° |
| 2026-04-30 02:24 | 12.07443 | 75.93204 | 4648 ft | 234 kts | 259° |
| 2026-04-30 02:24 | 12.07116 | 75.91579 | 4577 ft | 233 kts | 259° |
| 2026-04-30 02:24 | 12.06785 | 75.89954 | 4561 ft | 234 kts | 258° |
| 2026-04-30 02:25 | 12.06457 | 75.88316 | 4556 ft | 237 kts | 258° |
| 2026-04-30 02:25 | 12.06125 | 75.86664 | 4551 ft | 237 kts | 259° |
| 2026-04-30 02:25 | 12.05798 | 75.85011 | 4525 ft | 237 kts | 259° |
| 2026-04-30 02:25 | 12.05479 | 75.83366 | 4509 ft | 235 kts | 259° |
| 2026-04-30 02:26 | 12.05163 | 75.81734 | 4496 ft | 233 kts | 258° |
| 2026-04-30 02:26 | 12.04850 | 75.80115 | 4482 ft | 231 kts | 258° |
| 2026-04-30 02:26 | 12.04530 | 75.78514 | 4495 ft | 230 kts | 259° |
| 2026-04-30 02:26 | 12.04209 | 75.76910 | 4416 ft | 233 kts | 259° |
| 2026-04-30 02:27 | 12.03887 | 75.75278 | 4337 ft | 235 kts | 259° |
| 2026-04-30 02:27 | 12.03566 | 75.73639 | 4263 ft | 236 kts | 259° |
| 2026-04-30 02:27 | 12.03247 | 75.71991 | 4207 ft | 236 kts | 259° |
| 2026-04-30 02:27 | 12.02930 | 75.70369 | 4171 ft | 236 kts | 259° |
| 2026-04-30 02:28 | 12.02603 | 75.68713 | 4138 ft | 234 kts | 259° |
| 2026-04-30 02:28 | 12.02288 | 75.67112 | 4118 ft | 233 kts | 259° |
| 2026-04-30 02:28 | 12.01969 | 75.65499 | 4084 ft | 229 kts | 259° |
| 2026-04-30 02:28 | 12.01657 | 75.63909 | 4019 ft | 226 kts | 259° |
| 2026-04-30 02:29 | 12.01349 | 75.62346 | 3945 ft | 223 kts | 259° |
| 2026-04-30 02:29 | 12.01047 | 75.60810 | 3850 ft | 219 kts | 259° |
| 2026-04-30 02:29 | 12.00746 | 75.59301 | 3748 ft | 215 kts | 259° |
| 2026-04-30 02:29 | 12.00454 | 75.57822 | 3682 ft | 211 kts | 259° |
| 2026-04-30 02:30 | 12.00168 | 75.56367 | 3615 ft | 208 kts | 259° |
| 2026-04-30 02:30 | 11.99882 | 75.54924 | 3541 ft | 206 kts | 259° |
| 2026-04-30 02:30 | 11.99597 | 75.53493 | 3466 ft | 205 kts | 259° |
| 2026-04-30 02:30 | 11.99315 | 75.52071 | 3392 ft | 203 kts | 259° |
| 2026-04-30 02:31 | 11.99037 | 75.50661 | 3320 ft | 203 kts | 259° |
| 2026-04-30 02:31 | 11.98759 | 75.49252 | 3253 ft | 202 kts | 259° |
| 2026-04-30 02:31 | 11.98484 | 75.47844 | 3187 ft | 202 kts | 260° |
| 2026-04-30 02:31 | 11.98208 | 75.46442 | 3134 ft | 200 kts | 260° |
| 2026-04-30 02:32 | 11.97935 | 75.45062 | 3104 ft | 197 kts | 259° |
| 2026-04-30 02:32 | 11.97664 | 75.43697 | 3096 ft | 196 kts | 259° |
| 2026-04-30 02:32 | 11.97395 | 75.42338 | 3061 ft | 195 kts | 259° |
| 2026-04-30 02:32 | 11.97128 | 75.40988 | 3038 ft | 192 kts | 259° |
| 2026-04-30 02:33 | 11.96866 | 75.39660 | 3037 ft | 190 kts | 259° |
| 2026-04-30 02:33 | 11.96605 | 75.38343 | 3037 ft | 188 kts | 259° |
| 2026-04-30 02:33 | 11.96348 | 75.37039 | 3042 ft | 187 kts | 259° |
| 2026-04-30 02:33 | 11.96088 | 75.35741 | 3050 ft | 186 kts | 259° |
| 2026-04-30 02:34 | 11.95830 | 75.34442 | 3047 ft | 186 kts | 259° |
| 2026-04-30 02:34 | 11.95573 | 75.33145 | 3051 ft | 186 kts | 259° |
| 2026-04-30 02:34 | 11.95317 | 75.31849 | 3047 ft | 186 kts | 259° |
| 2026-04-30 02:34 | 11.94833 | 75.30660 | 3032 ft | 186 kts | 227° |
| 2026-04-30 02:35 | 11.93661 | 75.30140 | 3004 ft | 190 kts | 185° |
| 2026-04-30 02:35 | 11.92330 | 75.30183 | 2926 ft | 194 kts | 175° |
| 2026-04-30 02:35 | 11.90994 | 75.30437 | 2873 ft | 196 kts | 167° |
| 2026-04-30 02:35 | 11.89699 | 75.30851 | 2835 ft | 193 kts | 161° |
| 2026-04-30 02:36 | 11.88456 | 75.31341 | 2759 ft | 190 kts | 160° |
| 2026-04-30 02:36 | 11.87245 | 75.31834 | 2688 ft | 185 kts | 160° |
| 2026-04-30 02:36 | 11.86055 | 75.32315 | 2635 ft | 183 kts | 160° |
| 2026-04-30 02:36 | 11.85016 | 75.33020 | 2547 ft | 183 kts | 127° |
| 2026-04-30 02:37 | 11.84708 | 75.34251 | 2483 ft | 180 kts | 89° |
| 2026-04-30 02:37 | 11.84829 | 75.35516 | 2458 ft | 178 kts | 80° |
| 2026-04-30 02:37 | 11.85110 | 75.36744 | 2425 ft | 177 kts | 73° |
| 2026-04-30 02:37 | 11.85496 | 75.37928 | 2404 ft | 175 kts | 69° |
| 2026-04-30 02:38 | 11.85933 | 75.39071 | 2390 ft | 171 kts | 67° |
| 2026-04-30 02:38 | 11.86367 | 75.40172 | 2396 ft | 168 kts | 68° |
| 2026-04-30 02:38 | 11.86805 | 75.41287 | 2405 ft | 166 kts | 68° |
| 2026-04-30 02:38 | 11.87222 | 75.42361 | 2406 ft | 163 kts | 67° |
| 2026-04-30 02:39 | 11.87633 | 75.43449 | 2249 ft | 165 kts | 68° |
| 2026-04-30 02:39 | 11.88045 | 75.44529 | 2030 ft | 161 kts | 68° |
| 2026-04-30 02:39 | 11.88442 | 75.45576 | 1815 ft | 155 kts | 69° |
| 2026-04-30 02:39 | 11.88801 | 75.46527 | 1636 ft | 152 kts | 69° |
| 2026-04-30 02:40 | 11.89175 | 75.47521 | 1421 ft | 149 kts | 69° |
| 2026-04-30 02:40 | 11.89540 | 75.48498 | 1256 ft | 144 kts | 70° |
| 2026-04-30 02:40 | 11.89875 | 75.49396 | 1105 ft | 129 kts | 70° |
| 2026-04-30 02:40 | 11.90185 | 75.50229 | 938 ft | 122 kts | 70° |
| 2026-04-30 02:41 | 11.90483 | 75.51026 | 796 ft | 119 kts | 70° |
| 2026-04-30 02:41 | 11.90800 | 75.51801 | 629 ft | 117 kts | 67° |
| 2026-04-30 02:41 | 11.91054 | 75.52554 | 560 ft | 110 kts | 73° |
| 2026-04-30 02:41 | 11.91331 | 75.53302 | 388 ft | 112 kts | 68° |
| 2026-04-30 02:42 | 11.91605 | 75.54003 | 354 ft | 100 kts | 70° |
| 2026-04-30 02:42 | 11.91747 | 75.54408 | 352 ft | 24 kts | 67° |
| 2026-04-30 02:42 | 11.91800 | 75.54549 | 348 ft | 18 kts | 69° |
| 2026-04-30 02:42 | 11.91844 | 75.54659 | 345 ft | 15 kts | 68° |
| 2026-04-30 02:43 | 11.91845 | 75.54723 | 350 ft | 14 kts | 115° |
| 2026-04-30 02:43 | 11.91784 | 75.54764 | 353 ft | 0 kts | 161° |
| 2026-04-30 02:43 | 11.91778 | 75.54766 | 351 ft | 0 kts | 161° |
| 2026-04-30 02:43 | 11.91777 | 75.54766 | 351 ft | 0 kts | 161° |
| 2026-04-30 02:45 | 11.91762 | 75.54772 | 347 ft | 4 kts | 158° |
| 2026-04-30 02:45 | 11.91726 | 75.54794 | 351 ft | 7 kts | 133° |
| 2026-04-30 02:45 | 11.91713 | 75.54838 | 347 ft | 6 kts | 85° |
| 2026-04-30 02:46 | 11.91727 | 75.54880 | 348 ft | 7 kts | 70° |
| 2026-04-30 02:46 | 11.91746 | 75.54923 | 347 ft | 7 kts | 67° |
| 2026-04-30 02:46 | 11.91762 | 75.54968 | 354 ft | 7 kts | 79° |
| 2026-04-30 02:46 | 11.91745 | 75.55011 | 348 ft | 7 kts | 138° |
| 2026-04-30 02:47 | 11.91704 | 75.55033 | 350 ft | 6 kts | 141° |
| 2026-04-30 02:47 | 11.91702 | 75.55067 | 352 ft | 2 kts | 71° |
| 2026-04-30 02:47 | 11.91703 | 75.55070 | 354 ft | 0 kts | 71° |
| 2026-04-30 02:47 | 11.91705 | 75.55076 | 353 ft | 2 kts | 71° |
| 2026-04-30 02:48 | 11.91704 | 75.55098 | 348 ft | 3 kts | 112° |
| 2026-04-30 02:48 | 11.91682 | 75.55110 | 347 ft | 5 kts | 159° |
| 2026-04-30 02:48 | 11.91641 | 75.55126 | 348 ft | 6 kts | 154° |
| 2026-04-30 02:48 | 11.91633 | 75.55130 | 348 ft | 2 kts | 154° |
| 2026-04-30 02:49 | 11.91619 | 75.55136 | 351 ft | 0 kts | 157° |